STE.-Anne-De-Bellevue, Quebec

1:37 AM EDT on October 25, 2014 (GMT -0400)
Village de Beaurepaire Village | Change Station
CLOSE
Current Station
Personal Weather Station
Location: Beaconsfield, QUEBEC
Elevation: 95 ft
Nearby Weather Stations

Elev 95 ft 45.42 °N, 73.88 °W | Updated 32 seconds ago

Partly Cloudy
Partly Cloudy
48.0 °F
Feels Like 48 °F
N
1.0
Wind Variable Wind from WSW
Gusts 2.0 mph

Today is forecast to be nearly the same temperature as yesterday.

Today
High -- | Low -- °F
--% Chance of Precip.
Yesterday
High -- | Low -- °F
Precip. -- in
7:25 AM 5:53 PM
New Moon, 2% visible
Pressure 29.77 in
Visibility 15.0 miles
Clouds Few 15000 ft
Windchill 48 °F
Dew Point 43 °F
Humidity 84%
Rainfall 0.00 in
Snow Depth Not available.
UV 0 out of 12
Pollen Not available.
Air Quality Not available.
Flu Activity Not available.
METAR CYUL 250500Z 23007KT 15SM FEW150 06/05 A2977 RMK AC2 SLP080

More Conditions Fewer Conditions

Pressure 29.77 in
Visibility 15.0 miles
Clouds Few 15000 ft
Windchill 48 °F
Dew Point 43 °F
Humidity 84%
Rainfall 0.00 in
Snow Depth Not available.
UV 0 out of 12
Pollen Not available.
Air Quality Not available.
Flu Activity Not available.
METAR CYUL 250500Z 23007KT 15SM FEW150 06/05 A2977 RMK AC2 SLP080

More Conditions Fewer Conditions

10-Day Weather Forecast

Almanac

Astronomy

Oct. 25, 2014 Rise Set
Actual Time 7:25 AM EDT 5:53 PM EDT
Civil Twilight 6:54 AM EDT 6:23 PM EDT
Nautical Twilight 6:20 AM EDT 6:58 PM EDT
Astronomical Twilight 5:46 AM EDT 7:32 PM EDT
Moon 9:05 AM EDT 7:10 PM EDT
Length of Visible Light 11h 28m
Length of Day
10h 28m
Tomorrow will be 2m 58s shorter.
New Moon, 2% of the Moon is Illuminated
Today
New Moon
Oct 30
First Quarter
Nov 6
Full
Nov 14
Last Quarter
Nov 22
New

Yesterday's Extremes

Country Highs Country Lows

Community

WunderPhotos

Upload Photos

1,764,785 photos uploaded!

Nearby

Snow Depth

Not available.

Earthquake Activity

City Distance Mag. Time & Date
No recent earthquake activity has been reported nearby.
Minimum magnitude displayed is 2.5.

Coastal Water Temperatures

Place Temperature
No Stations Reporting

Nearby Weather Stations